Santa Catalina, Argentina
Current Conditions -  °F | °C
As of 1:00 PM on Sunday 21 Dec 2014 (Local Time) from SAOC Reporting Station
Scattered Clouds Scattered Clouds  
Wind Chill: 63°   Ceiling: Unl
Heat Index: 63°   Visibility: 6mi
Dew Point: 30°   Wind: 17mph
Humidity: 30%   Direction: 180°S
Pressure: 29.94"   Gusts: NA
Location:  33.2°S, 64.45°W
Report Text: SAOC 211600Z 18015KT 9999 FEW025 SCT10017/M01 Q1014
Loading
Personal Weather Stations






























Interactive Weather Map New forecast layout! Learn more

10-Day Weather Forecast

Advertisements
Track Severe Weather on mobile